createdAt,value
2024-03-05T00:01:39.169Z,8.65
2024-03-05T00:04:07.436Z,8.22
2024-03-05T00:06:34.866Z,8.62
2024-03-05T00:09:01.981Z,8.41
2024-03-05T00:11:29.264Z,8.88
2024-03-05T00:13:56.382Z,8.60
2024-03-05T00:16:23.538Z,8.63
2024-03-05T00:18:50.710Z,8.62
2024-03-05T00:21:17.832Z,8.60
2024-03-05T00:23:44.984Z,8.14
2024-03-05T00:26:20.005Z,8.38
2024-03-05T00:28:47.132Z,8.03
2024-03-05T00:31:14.664Z,8.43
2024-03-05T00:33:41.877Z,8.26
2024-03-05T00:36:09.609Z,8.45
2024-03-05T00:38:36.780Z,8.80
2024-03-05T00:41:04.131Z,8.90
2024-03-05T00:43:31.412Z,8.96
2024-03-05T00:45:58.579Z,9.33
2024-03-05T00:48:26.051Z,9.36
2024-03-05T00:50:53.410Z,9.85
2024-03-05T00:53:20.480Z,9.25
2024-03-05T00:55:48.101Z,9.16
2024-03-05T00:58:15.248Z,9.66
2024-03-05T01:00:44.904Z,9.41
2024-03-05T01:03:14.978Z,9.40
2024-03-05T01:05:42.111Z,9.47
2024-03-05T01:08:09.211Z,9.34
2024-03-05T01:10:36.461Z,9.70
2024-03-05T01:13:03.927Z,9.26
2024-03-05T01:15:30.995Z,10.00
2024-03-05T01:17:59.222Z,9.31
2024-03-05T01:20:26.522Z,9.68
2024-03-05T01:22:53.627Z,10.05
2024-03-05T01:25:21.035Z,9.87
2024-03-05T01:27:48.257Z,9.52
2024-03-05T01:30:15.932Z,9.09
2024-03-05T01:32:45.484Z,9.40
2024-03-05T01:35:12.904Z,9.32
2024-03-05T01:37:41.978Z,9.48
2024-03-05T01:40:12.911Z,9.91
2024-03-05T01:42:40.061Z,9.54
2024-03-05T01:45:08.118Z,9.89
2024-03-05T01:47:35.630Z,9.59
2024-03-05T01:50:05.382Z,9.48
2024-03-05T01:52:33.744Z,9.96
2024-03-05T01:55:08.060Z,9.89
2024-03-05T01:57:36.244Z,9.91
2024-03-05T02:00:03.944Z,9.57
2024-03-05T02:02:31.978Z,9.28
2024-03-05T02:05:00.004Z,9.22
2024-03-05T02:07:27.190Z,9.72
2024-03-05T02:09:55.726Z,9.64
2024-03-05T02:12:23.768Z,9.78
2024-03-05T02:14:51.100Z,9.95
2024-03-05T02:17:19.185Z,9.70
2024-03-05T02:19:52.513Z,9.24
2024-03-05T02:22:19.895Z,9.44
2024-03-05T02:24:46.938Z,10.51
2024-03-05T02:27:20.430Z,10.09
2024-03-05T02:29:53.848Z,9.89
2024-03-05T02:32:21.100Z,9.59
2024-03-05T02:34:48.295Z,10.54
2024-03-05T02:37:15.544Z,10.23
2024-03-05T02:39:42.606Z,10.18
2024-03-05T02:42:09.697Z,9.26
2024-03-05T02:44:36.869Z,9.72
2024-03-05T02:47:04.563Z,10.09
2024-03-05T02:49:31.789Z,9.78
2024-03-05T02:51:58.956Z,9.45
2024-03-05T02:54:26.019Z,9.30
2024-03-05T02:56:53.102Z,9.45
2024-03-05T02:59:20.201Z,9.80
2024-03-05T03:01:48.570Z,10.29
2024-03-05T03:04:16.803Z,10.48
2024-03-05T03:06:44.712Z,10.31
2024-03-05T03:09:11.779Z,9.82
2024-03-05T03:11:43.068Z,9.73
2024-03-05T03:14:10.738Z,9.73
2024-03-05T03:16:37.881Z,9.92
2024-03-05T03:19:06.196Z,9.98
2024-03-05T03:21:33.630Z,10.54
2024-03-05T03:24:00.901Z,10.92
2024-03-05T03:26:28.265Z,10.53
2024-03-05T03:28:56.267Z,10.15
2024-03-05T03:31:24.192Z,10.44
2024-03-05T03:33:51.375Z,10.22
2024-03-05T03:36:25.851Z,10.44
2024-03-05T03:38:53.671Z,10.05
2024-03-05T03:41:21.179Z,10.20
2024-03-05T03:43:48.942Z,10.17
2024-03-05T03:46:16.367Z,10.59
2024-03-05T03:48:43.558Z,10.78
2024-03-05T03:51:11.002Z,10.59
2024-03-05T03:53:38.626Z,10.44
2024-03-05T03:56:06.345Z,10.64
2024-03-05T03:58:34.105Z,10.71
2024-03-05T04:01:01.267Z,10.82
2024-03-05T04:03:28.446Z,10.55
2024-03-05T04:05:56.022Z,10.83
2024-03-05T04:08:23.244Z,10.55
2024-03-05T04:10:50.522Z,10.09
2024-03-05T04:13:19.245Z,9.88
2024-03-05T04:15:46.425Z,9.92
2024-03-05T04:18:13.479Z,10.65
2024-03-05T04:20:42.285Z,10.15
2024-03-05T04:23:10.846Z,10.03
2024-03-05T04:25:41.654Z,9.80
2024-03-05T04:28:14.359Z,9.87
2024-03-05T04:30:43.621Z,10.42
2024-03-05T04:33:11.039Z,10.42
2024-03-05T04:35:39.372Z,10.82
2024-03-05T04:38:09.015Z,10.45
2024-03-05T04:40:37.202Z,10.82
2024-03-05T04:43:04.880Z,11.32
2024-03-05T04:45:33.641Z,10.73
2024-03-05T04:48:01.070Z,10.85
2024-03-05T04:50:28.226Z,10.91
2024-03-05T04:52:55.487Z,10.35
2024-03-05T04:55:24.006Z,10.89
2024-03-05T04:57:51.325Z,10.65
2024-03-05T05:00:22.100Z,10.85
2024-03-05T05:02:53.562Z,11.58
2024-03-05T05:05:23.032Z,11.04
2024-03-05T05:07:50.243Z,11.15
2024-03-05T05:10:18.102Z,11.07
2024-03-05T05:12:46.748Z,11.28
2024-03-05T05:15:14.409Z,11.06
2024-03-05T05:17:42.516Z,11.89
2024-03-05T05:20:10.763Z,11.83
2024-03-05T05:22:39.651Z,11.65
2024-03-05T05:25:08.293Z,11.24
2024-03-05T05:27:38.159Z,11.52
2024-03-05T05:30:12.984Z,11.00
2024-03-05T05:32:41.596Z,12.21
2024-03-05T05:35:10.101Z,11.44
2024-03-05T05:37:40.678Z,11.92
2024-03-05T05:40:12.897Z,11.31
2024-03-05T05:42:41.582Z,11.23
2024-03-05T05:45:12.668Z,12.19
2024-03-05T05:47:50.808Z,11.95
2024-03-05T05:50:20.091Z,11.09
2024-03-05T05:52:54.697Z,11.23
2024-03-05T05:55:26.992Z,11.49
2024-03-05T05:57:56.983Z,11.55
2024-03-05T06:00:35.028Z,11.35
2024-03-05T06:03:06.090Z,11.05
2024-03-05T06:05:33.669Z,11.72
2024-03-05T06:08:02.015Z,11.74
2024-03-05T06:10:31.137Z,11.39
2024-03-05T06:12:59.911Z,11.72
2024-03-05T06:15:30.018Z,11.61
2024-03-05T06:17:59.661Z,11.86
2024-03-05T06:20:30.481Z,11.22
2024-03-05T06:22:58.672Z,12.37
2024-03-05T06:25:25.899Z,11.94
2024-03-05T06:27:54.013Z,11.10
2024-03-05T06:30:21.217Z,11.72
2024-03-05T06:32:53.640Z,12.06
2024-03-05T06:35:25.633Z,12.40
2024-03-05T06:37:55.306Z,12.99
2024-03-05T06:40:25.169Z,12.30
2024-03-05T06:42:54.269Z,12.40
2024-03-05T06:45:31.253Z,12.31
2024-03-05T06:50:35.953Z,12.48
2024-03-05T06:53:21.318Z,12.41
2024-03-05T06:56:07.014Z,12.72
2024-03-05T06:58:36.695Z,12.74
2024-03-05T07:01:05.236Z,12.42
2024-03-05T07:03:33.357Z,12.22
2024-03-05T07:06:00.452Z,12.40
2024-03-05T07:08:28.939Z,12.56
2024-03-05T07:10:56.213Z,12.03
2024-03-05T07:13:23.364Z,12.48
2024-03-05T07:15:52.602Z,12.66
2024-03-05T07:18:19.700Z,12.00
2024-03-05T07:20:47.642Z,12.94
2024-03-05T07:23:14.903Z,12.87
2024-03-05T07:25:42.085Z,13.26
2024-03-05T07:28:11.920Z,13.79
2024-03-05T07:30:44.128Z,13.88
2024-03-05T07:33:11.289Z,14.10
2024-03-05T07:35:38.535Z,14.34
2024-03-05T07:38:09.066Z,13.65
2024-03-05T07:40:37.402Z,13.70
2024-03-05T07:43:05.933Z,12.86
2024-03-05T07:45:34.927Z,12.92
2024-03-05T07:48:03.083Z,12.74
2024-03-05T07:50:31.121Z,13.29
2024-03-05T07:53:01.109Z,13.02
2024-03-05T07:55:32.131Z,12.68
2024-03-05T07:58:03.159Z,12.13
2024-03-05T08:00:30.274Z,11.96
2024-03-05T08:02:57.422Z,11.88
2024-03-05T08:05:24.960Z,11.51
2024-03-05T08:07:55.041Z,12.04
2024-03-05T08:10:24.101Z,12.28
2024-03-05T08:12:55.768Z,11.85
2024-03-05T08:15:28.009Z,11.69
2024-03-05T08:17:58.223Z,12.47
2024-03-05T08:20:28.451Z,12.10
2024-03-05T08:22:57.688Z,11.60
2024-03-05T08:25:25.919Z,11.76
2024-03-05T08:27:56.846Z,12.22
2024-03-05T08:30:27.624Z,12.05
2024-03-05T08:32:57.312Z,11.74
2024-03-05T08:35:27.209Z,10.90
2024-03-05T08:37:54.719Z,11.49
2024-03-05T08:40:23.052Z,11.50
2024-03-05T08:42:52.940Z,11.15
2024-03-05T08:45:21.751Z,11.12
2024-03-05T08:47:51.718Z,10.66
2024-03-05T08:50:19.992Z,10.04
2024-03-05T08:52:48.262Z,10.43
2024-03-05T08:55:17.073Z,10.87
2024-03-05T08:57:45.446Z,10.20
2024-03-05T09:02:49.002Z,10.20
2024-03-05T09:05:16.216Z,10.11
2024-03-05T09:07:44.932Z,10.48
2024-03-05T09:10:12.341Z,10.74
2024-03-05T09:12:39.374Z,10.81
2024-03-05T09:15:07.722Z,10.70
2024-03-05T09:17:37.955Z,10.73
2024-03-05T09:20:15.569Z,10.23
2024-03-05T09:22:46.457Z,10.14
2024-03-05T09:25:16.005Z,10.26
2024-03-05T09:27:46.712Z,10.47
2024-03-05T09:30:19.927Z,10.31
2024-03-05T09:32:48.253Z,10.37
2024-03-05T09:35:17.200Z,10.08
2024-03-05T09:37:50.448Z,10.42
2024-03-05T09:40:22.354Z,9.96
2024-03-05T09:42:49.764Z,9.42
2024-03-05T09:45:19.675Z,9.74
2024-03-05T09:47:51.234Z,10.09
2024-03-05T09:50:19.204Z,9.68
2024-03-05T09:52:48.739Z,10.21
2024-03-05T09:55:19.295Z,9.83
2024-03-05T09:57:50.527Z,9.93
2024-03-05T10:00:19.945Z,10.06
2024-03-05T10:02:50.114Z,10.24
2024-03-05T10:05:18.180Z,9.64
2024-03-05T10:07:50.195Z,9.46
2024-03-05T10:10:22.115Z,9.05
2024-03-05T10:12:51.988Z,10.10
2024-03-05T10:15:27.186Z,10.55
2024-03-05T10:17:56.938Z,9.25
2024-03-05T10:20:39.845Z,9.03
2024-03-05T10:23:11.141Z,8.45
2024-03-05T10:25:38.705Z,8.63
2024-03-05T10:28:10.331Z,8.62
2024-03-05T10:30:39.395Z,8.89
2024-03-05T10:33:11.981Z,8.36
2024-03-05T10:35:42.141Z,7.77
2024-03-05T10:38:13.756Z,7.61
2024-03-05T10:40:46.460Z,7.60
2024-03-05T10:43:20.177Z,6.64
2024-03-05T10:45:49.053Z,6.45
2024-03-05T10:48:22.217Z,6.21
2024-03-05T10:50:55.298Z,5.86
2024-03-05T10:53:22.448Z,5.56
2024-03-05T10:55:54.648Z,5.22
2024-03-05T10:58:41.914Z,5.27
2024-03-05T11:01:11.753Z,4.89
2024-03-05T11:03:41.197Z,4.94
2024-03-05T11:06:10.720Z,4.24
2024-03-05T11:08:38.713Z,4.26
2024-03-05T11:11:13.376Z,4.00
2024-03-05T11:13:42.960Z,4.17
2024-03-05T11:16:10.628Z,3.52
2024-03-05T11:18:39.799Z,3.02
2024-03-05T11:21:13.115Z,3.27
2024-03-05T11:23:52.918Z,2.67
2024-03-05T11:26:25.731Z,2.86
2024-03-05T11:29:18.366Z,2.41
2024-03-05T11:31:49.057Z,2.26
2024-03-05T11:34:19.299Z,2.05
2024-03-05T11:36:46.827Z,2.15
2024-03-05T11:39:21.351Z,2.23
2024-03-05T11:41:49.731Z,1.99
2024-03-05T11:44:36.923Z,1.98
2024-03-05T11:47:04.885Z,1.87
2024-03-05T11:49:32.842Z,1.79
2024-03-05T11:52:00.760Z,1.91
2024-03-05T11:54:27.907Z,1.84
2024-03-05T11:57:02.513Z,1.60
2024-03-05T11:59:40.987Z,1.70
2024-03-05T12:02:13.428Z,1.58
2024-03-05T12:04:41.935Z,1.72
2024-03-05T12:07:14.484Z,1.69
2024-03-05T12:09:42.380Z,1.65
2024-03-05T12:12:15.737Z,1.46
2024-03-05T12:14:56.613Z,1.39
2024-03-05T12:17:26.290Z,1.56
2024-03-05T12:20:05.124Z,1.86
2024-03-05T12:22:32.349Z,3.71
2024-03-05T12:24:59.569Z,1.98
2024-03-05T12:27:27.210Z,1.90
2024-03-05T12:29:54.531Z,1.95
2024-03-05T12:32:21.857Z,1.61
2024-03-05T12:34:49.696Z,1.75
2024-03-05T12:37:21.890Z,2.01
2024-03-05T12:40:08.752Z,1.82
2024-03-05T12:42:36.096Z,1.80
2024-03-05T12:45:09.236Z,1.68
2024-03-05T12:47:38.384Z,1.77
2024-03-05T12:50:09.421Z,1.66
2024-03-05T12:52:37.861Z,1.84
2024-03-05T12:55:11.611Z,1.75
2024-03-05T12:57:39.534Z,1.60
2024-03-05T13:00:14.706Z,1.45
2024-03-05T13:02:43.383Z,1.77
2024-03-05T13:05:11.314Z,1.67
2024-03-05T13:07:39.837Z,1.66
2024-03-05T13:10:12.324Z,1.65
2024-03-05T13:12:40.781Z,1.58
2024-03-05T13:15:08.601Z,1.47
2024-03-05T13:17:35.941Z,1.86
2024-03-05T13:20:06.190Z,1.54
2024-03-05T13:22:34.077Z,1.71
2024-03-05T13:25:01.503Z,1.86
2024-03-05T13:27:28.857Z,1.54
2024-03-05T13:30:05.681Z,1.65
2024-03-05T13:32:39.765Z,1.77
2024-03-05T13:35:08.678Z,1.81
2024-03-05T13:37:39.505Z,1.60
2024-03-05T13:40:08.807Z,2.63
2024-03-05T13:42:37.738Z,2.17
2024-03-05T13:45:13.924Z,2.00
2024-03-05T13:47:41.559Z,1.55
2024-03-05T13:50:15.018Z,2.69
2024-03-05T13:52:45.193Z,1.96
2024-03-05T13:55:15.645Z,1.57
2024-03-05T13:57:43.654Z,1.48
2024-03-05T14:00:21.608Z,2.26
2024-03-05T14:02:50.118Z,1.60
2024-03-05T14:05:17.781Z,1.95
2024-03-05T14:07:45.958Z,1.84
2024-03-05T14:10:13.491Z,1.71
2024-03-05T14:12:41.907Z,1.60
2024-03-05T14:15:11.763Z,1.98
2024-03-05T14:17:38.821Z,1.45
2024-03-05T14:20:07.972Z,1.55
2024-03-05T14:22:39.844Z,1.31
2024-03-05T14:25:08.560Z,1.28
2024-03-05T14:27:36.392Z,1.07
2024-03-05T14:30:04.230Z,1.51
2024-03-05T14:32:32.480Z,1.27
2024-03-05T14:35:00.494Z,1.34
2024-03-05T14:37:27.722Z,1.81
2024-03-05T14:39:54.836Z,1.45
2024-03-05T14:42:22.381Z,1.33
2024-03-05T14:44:49.652Z,1.21
2024-03-05T14:47:16.678Z,1.40
2024-03-05T14:49:43.935Z,1.38
2024-03-05T14:52:11.110Z,1.26
2024-03-05T14:54:38.236Z,1.37
2024-03-05T14:57:05.908Z,1.13
2024-03-05T14:59:32.980Z,1.18
2024-03-05T15:02:00.145Z,1.29
2024-03-05T15:04:27.924Z,1.53
2024-03-05T15:06:57.897Z,1.46
2024-03-05T15:09:25.057Z,1.68
2024-03-05T15:11:52.281Z,1.72
2024-03-05T15:14:19.336Z,1.86
2024-03-05T15:16:46.505Z,1.58
2024-03-05T15:19:16.524Z,1.61
2024-03-05T15:21:43.773Z,1.86
2024-03-05T15:24:12.181Z,1.90
2024-03-05T15:26:45.110Z,2.07
2024-03-05T15:29:20.950Z,1.73
2024-03-05T15:31:48.056Z,1.65
2024-03-05T15:34:15.381Z,1.77
2024-03-05T15:36:43.496Z,1.98
2024-03-05T15:39:10.676Z,1.84
2024-03-05T15:41:40.556Z,2.07
2024-03-05T15:44:07.903Z,1.90
2024-03-05T15:46:35.045Z,2.33
2024-03-05T15:49:02.139Z,2.47
2024-03-05T15:51:29.245Z,2.33
2024-03-05T15:53:56.609Z,2.21
2024-03-05T15:56:36.350Z,2.26
2024-03-05T15:59:22.938Z,2.50
2024-03-05T16:01:50.060Z,2.65
2024-03-05T16:04:39.258Z,2.43
2024-03-05T16:07:05.373Z,2.55
2024-03-05T16:09:33.533Z,2.47
2024-03-05T16:12:00.802Z,2.39
2024-03-05T16:14:28.538Z,3.00
2024-03-05T16:16:55.718Z,6.29
2024-03-05T16:19:22.852Z,3.56
2024-03-05T16:21:51.323Z,3.44
2024-03-05T16:24:18.521Z,3.56
2024-03-05T16:26:46.066Z,2.70
2024-03-05T16:29:13.163Z,2.70
2024-03-05T16:31:40.347Z,5.11
2024-03-05T16:34:08.847Z,4.15
2024-03-05T16:36:36.017Z,4.75
2024-03-05T16:39:03.143Z,3.20
2024-03-05T16:41:30.265Z,2.86
2024-03-05T16:43:57.930Z,2.52
2024-03-05T16:46:25.496Z,2.29
2024-03-05T16:48:52.644Z,2.39
2024-03-05T16:51:19.829Z,2.18
2024-03-05T16:53:46.903Z,2.30
2024-03-05T16:56:14.069Z,2.48
2024-03-05T16:58:41.228Z,2.39
2024-03-05T17:01:09.976Z,2.60
2024-03-05T17:03:37.524Z,2.82
2024-03-05T17:06:09.369Z,2.86
2024-03-05T17:08:36.447Z,3.30
2024-03-05T17:11:10.832Z,4.46
2024-03-05T17:13:42.960Z,6.20
2024-03-05T17:16:12.883Z,4.78
2024-03-05T17:18:40.246Z,2.68
2024-03-05T17:21:08.677Z,2.21
2024-03-05T17:23:42.596Z,2.16
2024-03-05T17:26:13.481Z,2.83
2024-03-05T17:28:42.575Z,3.20
2024-03-05T17:31:10.117Z,2.78
2024-03-05T17:33:37.263Z,2.97
2024-03-05T17:36:04.872Z,3.73
2024-03-05T17:38:33.286Z,4.08
2024-03-05T17:41:01.911Z,3.94
2024-03-05T17:43:29.729Z,3.49
2024-03-05T17:45:57.215Z,3.22
2024-03-05T17:48:24.359Z,3.60
2024-03-05T17:50:51.599Z,3.67
2024-03-05T17:53:18.787Z,2.78
2024-03-05T17:55:46.435Z,3.01
2024-03-05T17:58:13.816Z,2.97
2024-03-05T18:00:46.646Z,2.52
2024-03-05T18:03:22.847Z,2.72
2024-03-05T18:05:50.243Z,2.97
2024-03-05T18:08:17.640Z,2.79
2024-03-05T18:10:45.108Z,3.67
2024-03-05T18:13:13.646Z,3.04
2024-03-05T18:15:41.626Z,3.32
2024-03-05T18:18:08.787Z,3.88
2024-03-05T18:20:36.792Z,4.35
2024-03-05T18:23:06.578Z,5.22
2024-03-05T18:25:37.536Z,5.21
2024-03-05T18:28:06.893Z,3.96
2024-03-05T18:30:36.977Z,3.94
2024-03-05T18:33:09.637Z,4.89
2024-03-05T18:35:38.468Z,5.79
2024-03-05T18:38:16.420Z,8.23
2024-03-05T18:40:51.741Z,9.01
2024-03-05T18:43:22.878Z,6.74
2024-03-05T18:45:51.354Z,5.17
2024-03-05T18:48:19.128Z,6.45
2024-03-05T18:50:47.301Z,5.36
2024-03-05T18:53:14.987Z,5.10
2024-03-05T18:55:42.523Z,4.62
2024-03-05T18:58:10.065Z,4.23
2024-03-05T19:00:38.412Z,4.31
2024-03-05T19:03:06.863Z,4.14
2024-03-05T19:05:35.309Z,3.65
2024-03-05T19:08:03.054Z,3.25
2024-03-05T19:10:31.872Z,3.47
2024-03-05T19:13:00.186Z,3.40
2024-03-05T19:15:29.603Z,3.23
2024-03-05T19:17:58.872Z,3.02
2024-03-05T19:20:27.327Z,3.17
2024-03-05T19:22:54.964Z,3.09
2024-03-05T19:25:23.816Z,4.76
2024-03-05T19:27:51.088Z,4.70
2024-03-05T19:30:18.734Z,4.74
2024-03-05T19:32:47.591Z,3.36
2024-03-05T19:35:18.388Z,2.95
2024-03-05T19:37:51.276Z,2.85
2024-03-05T19:40:19.162Z,3.41
2024-03-05T19:42:55.070Z,4.71
2024-03-05T19:45:22.855Z,4.57
2024-03-05T19:47:50.291Z,3.54
2024-03-05T19:50:19.302Z,3.21
2024-03-05T19:52:49.614Z,2.90
2024-03-05T19:55:17.362Z,2.80
2024-03-05T19:57:45.472Z,2.50
2024-03-05T20:00:18.722Z,2.97
2024-03-05T20:02:49.112Z,3.01
2024-03-05T20:05:21.049Z,3.39
2024-03-05T20:07:49.197Z,3.17
2024-03-05T20:10:16.695Z,3.82
2024-03-05T20:12:45.169Z,4.14
2024-03-05T20:15:13.659Z,4.02
2024-03-05T20:17:42.009Z,4.58
2024-03-05T20:20:11.033Z,5.93
2024-03-05T20:22:39.583Z,5.50
2024-03-05T20:25:08.349Z,9.89
2024-03-05T20:27:35.824Z,15.43
2024-03-05T20:30:05.595Z,12.39
2024-03-05T20:32:32.750Z,6.34
2024-03-05T20:35:01.009Z,4.70
2024-03-05T20:37:30.956Z,3.90
2024-03-05T20:39:59.426Z,3.50
2024-03-05T20:42:26.579Z,3.36
2024-03-05T20:44:53.720Z,3.40
2024-03-05T20:47:20.861Z,3.24
2024-03-05T20:49:47.974Z,2.89
2024-03-05T20:52:15.116Z,2.68
2024-03-05T20:54:42.190Z,2.48
2024-03-05T20:57:09.309Z,2.56
2024-03-05T20:59:36.409Z,2.68
2024-03-05T21:02:11.360Z,2.81
2024-03-05T21:04:39.808Z,2.85
2024-03-05T21:07:07.085Z,2.92
2024-03-05T21:09:35.604Z,3.06
2024-03-05T21:12:03.045Z,3.26
2024-03-05T21:14:30.150Z,3.02
2024-03-05T21:16:57.307Z,3.05
2024-03-05T21:19:27.861Z,3.19
2024-03-05T21:21:55.159Z,3.29
2024-03-05T21:24:24.648Z,3.70
2024-03-05T21:29:21.777Z,3.70
2024-03-05T21:31:48.907Z,3.57
2024-03-05T21:34:16.048Z,3.06
2024-03-05T21:36:43.235Z,3.01
2024-03-05T21:39:10.484Z,3.35
2024-03-05T21:41:37.797Z,3.67
2024-03-05T21:44:05.766Z,3.43
2024-03-05T21:46:32.980Z,3.78
2024-03-05T21:49:01.232Z,3.71
2024-03-05T21:51:31.478Z,3.80
2024-03-05T21:53:58.865Z,3.47
2024-03-05T21:56:25.967Z,3.56
2024-03-05T21:58:53.165Z,3.16
2024-03-05T22:01:21.760Z,3.11
2024-03-05T22:03:49.555Z,2.79
2024-03-05T22:06:23.692Z,2.47
2024-03-05T22:08:52.369Z,2.77
2024-03-05T22:11:19.648Z,2.86
2024-03-05T22:13:46.936Z,3.08
2024-03-05T22:16:13.993Z,2.63
2024-03-05T22:18:41.080Z,2.50
2024-03-05T22:21:08.247Z,2.85
2024-03-05T22:23:35.375Z,2.46
2024-03-05T22:26:02.547Z,2.32
2024-03-05T22:28:31.654Z,2.05
2024-03-05T22:30:59.697Z,2.07
2024-03-05T22:33:26.889Z,2.34
2024-03-05T22:35:53.949Z,2.27
2024-03-05T22:38:22.236Z,2.29
2024-03-05T22:40:49.401Z,2.27
2024-03-05T22:43:16.591Z,2.09
2024-03-05T22:45:43.852Z,1.78
2024-03-05T22:48:11.219Z,2.03
2024-03-05T22:50:38.357Z,2.33
2024-03-05T22:53:05.694Z,2.05
2024-03-05T22:55:33.316Z,2.03
2024-03-05T22:58:00.819Z,2.08
2024-03-05T23:00:36.636Z,2.47
2024-03-05T23:03:04.897Z,2.49
2024-03-05T23:05:32.726Z,2.38
2024-03-05T23:08:01.197Z,2.21
2024-03-05T23:10:30.082Z,2.58
2024-03-05T23:12:57.921Z,5.41
2024-03-05T23:15:28.968Z,5.96
2024-03-05T23:17:56.409Z,5.44
2024-03-05T23:20:23.603Z,3.59
2024-03-05T23:22:51.107Z,3.10
2024-03-05T23:25:18.607Z,2.71
2024-03-05T23:27:47.552Z,2.50
2024-03-05T23:30:18.215Z,2.95
2024-03-05T23:32:47.462Z,3.00
2024-03-05T23:35:16.141Z,3.05
2024-03-05T23:37:43.412Z,3.24
2024-03-05T23:40:11.311Z,3.02
2024-03-05T23:42:39.796Z,3.19
2024-03-05T23:45:08.338Z,3.21
2024-03-05T23:47:35.790Z,3.10
2024-03-05T23:50:03.947Z,3.15
2024-03-05T23:52:31.336Z,3.11
2024-03-05T23:55:01.285Z,3.21
2024-03-05T23:57:29.925Z,3.33
2024-03-05T23:59:57.384Z,3.06
